Time,TemperatureF,DewpointF,PressureIn,WindDirection,WindDirectionDegrees,WindSpeedMPH,WindSpeedGustMPH,Humidity,HourlyPrecipIn,Conditions,Clouds,dailyrainin,SolarRadiationWatts/m^2,SoftwareType,DateUTC
2013-07-27 00:01:00,64.2,55.8,29.91,SE,146,1.0,2.3,74,0.00,SCT,BKN,0.00,0.0,WeatherDisplay:10.37,2013-07-27 04:01:00,
2013-07-27 00:02:00,64.2,56.1,29.91,SE,129,0.2,1.1,75,0.00,SCT,BKN,0.00,0.0,WeatherDisplay:10.37,2013-07-27 04:02:00,
2013-07-27 00:07:00,64.2,56.1,29.91,SSE,156,0.0,0.0,75,0.00,SCT,BKN,0.00,0.0,WeatherDisplay:10.37,2013-07-27 04:07:00,
2013-07-27 00:12:00,64.2,56.5,29.91,SE,140,0.7,2.5,76,0.00,SCT,BKN,0.00,0.0,WeatherDisplay:10.37,2013-07-27 04:12:00,
2013-07-27 00:17:00,64.0,56.3,29.91,ESE,103,1.2,2.3,76,0.00,SCT,BKN,0.00,0.0,WeatherDisplay:10.37,2013-07-27 04:17:00,
2013-07-27 00:22:00,64.2,56.5,29.91,East,79,0.0,0.0,76,0.00,SCT,BKN,0.00,0.0,WeatherDisplay:10.37,2013-07-27 04:22:00,
2013-07-27 00:27:00,64.2,56.5,29.90,ENE,64,0.0,0.0,76,0.00,SCT,BKN,0.00,0.0,WeatherDisplay:10.37,2013-07-27 04:27:00,
2013-07-27 00:32:00,64.2,56.9,29.91,ENE,67,0.0,1.1,77,0.00,SCT,BKN,0.00,0.0,WeatherDisplay:10.37,2013-07-27 04:32:00,
2013-07-27 00:37:00,64.2,56.9,29.90,NE,41,0.2,2.3,77,0.00,SCT,BKN,0.00,0.0,WeatherDisplay:10.37,2013-07-27 04:37:00,
2013-07-27 00:42:00,64.0,57.0,29.89,SE,132,0.5,2.3,78,0.00,SCT,BKN,0.00,0.0,WeatherDisplay:10.37,2013-07-27 04:42:00,
2013-07-27 00:47:00,64.0,57.7,29.89,SSE,161,1.8,4.6,80,0.00,SCT,BKN,0.00,0.0,WeatherDisplay:10.37,2013-07-27 04:47:00,
2013-07-27 00:52:00,63.9,57.9,29.89,SE,136,2.6,4.6,81,0.00,SCT,BKN,0.00,0.0,WeatherDisplay:10.37,2013-07-27 04:52:00,
2013-07-27 00:57:00,63.9,57.9,29.89,SSE,151,1.1,3.5,81,0.00,SCT,BKN,0.00,0.0,WeatherDisplay:10.37,2013-07-27 04:57:00,
2013-07-27 01:02:00,64.0,58.4,29.89,SSE,165,2.6,4.6,82,0.00,SCT,BKN,0.00,0.0,WeatherDisplay:10.37,2013-07-27 05:02:00,
2013-07-27 01:07:00,64.0,58.4,29.89,ESE,103,2.0,4.6,82,0.00,SCT,BKN,0.00,0.0,WeatherDisplay:10.37,2013-07-27 05:07:00,
2013-07-27 01:12:00,64.0,58.4,29.89,SE,136,2.6,3.5,82,0.00,SCT,BKN,0.00,0.0,WeatherDisplay:10.37,2013-07-27 05:12:00,
2013-07-27 01:17:00,64.0,58.4,29.89,SE,132,2.2,4.6,82,0.00,SCT,BKN,0.00,0.0,WeatherDisplay:10.37,2013-07-27 05:17:00,
2013-07-27 01:22:00,64.0,58.4,29.89,SE,134,1.8,4.6,82,0.00,SCT,BKN,0.00,0.0,WeatherDisplay:10.37,2013-07-27 05:22:00,
2013-07-27 01:27:00,63.7,58.1,29.89,SE,143,2.3,4.6,82,0.00,SCT,BKN,0.00,0.0,WeatherDisplay:10.37,2013-07-27 05:27:00,
2013-07-27 01:32:00,63.7,58.1,29.88,SE,133,1.3,3.5,82,0.00,SCT,BKN,0.00,0.0,WeatherDisplay:10.37,2013-07-27 05:32:00,
2013-07-27 01:37:00,63.7,58.4,29.89,SE,141,2.5,4.6,83,0.00,SCT,BKN,0.00,0.0,WeatherDisplay:10.37,2013-07-27 05:37:00,
2013-07-27 01:42:00,63.5,58.2,29.88,SSE,155,3.0,4.6,83,0.00,SCT,BKN,0.00,0.0,WeatherDisplay:10.37,2013-07-27 05:42:00,
2013-07-27 01:47:00,63.7,58.4,29.88,SE,132,3.8,6.9,83,0.00,SCT,BKN,0.00,0.0,WeatherDisplay:10.37,2013-07-27 05:47:00,
2013-07-27 01:52:00,63.7,58.1,29.88,South,190,1.9,4.6,82,0.00,SCT,BKN,0.00,0.0,WeatherDisplay:10.37,2013-07-27 05:52:00,
2013-07-27 01:57:00,63.7,58.1,29.88,SE,142,1.9,4.6,82,0.00,SCT,BKN,0.00,0.0,WeatherDisplay:10.37,2013-07-27 05:57:00,
2013-07-27 02:02:00,63.7,58.4,29.87,ESE,116,3.2,6.9,83,0.00,SCT,BKN,0.00,0.0,WeatherDisplay:10.37,2013-07-27 06:02:00,
2013-07-27 02:07:00,63.7,58.4,29.87,SE,136,3.2,5.8,83,0.00,SCT,BKN,0.00,0.0,WeatherDisplay:10.37,2013-07-27 06:07:00,
2013-07-27 02:12:00,63.7,58.4,29.87,SE,141,1.9,4.0,83,0.00,SCT,BKN,0.00,0.0,WeatherDisplay:10.37,2013-07-27 06:12:00,
2013-07-27 02:17:00,63.7,58.4,29.87,SE,132,2.3,6.9,83,0.00,SCT,BKN,0.00,0.0,WeatherDisplay:10.37,2013-07-27 06:17:00,
2013-07-27 02:22:00,63.7,58.4,29.87,ESE,114,1.6,3.5,83,0.00,SCT,BKN,0.00,0.0,WeatherDisplay:10.37,2013-07-27 06:22:00,
2013-07-27 02:27:00,63.7,58.4,29.88,SSE,161,1.7,5.8,83,0.00,SCT,BKN,0.00,0.0,WeatherDisplay:10.37,2013-07-27 06:27:00,
2013-07-27 02:32:00,63.7,58.4,29.87,SE,142,0.5,2.8,83,0.00,SCT,BKN,0.00,0.0,WeatherDisplay:10.37,2013-07-27 06:32:00,
2013-07-27 02:37:00,63.3,58.4,29.87,SE,127,2.1,4.0,84,0.00,SCT,BKN,0.00,0.0,WeatherDisplay:10.37,2013-07-27 06:37:00,
2013-07-27 02:42:00,63.3,58.4,29.87,ESE,120,1.3,2.3,84,0.00,SCT,BKN,0.00,0.0,WeatherDisplay:10.37,2013-07-27 06:42:00,
2013-07-27 02:47:00,63.1,58.2,29.87,ESE,109,1.8,3.7,84,0.00,SCT,BKN,0.00,0.0,WeatherDisplay:10.37,2013-07-27 06:47:00,
2013-07-27 02:52:00,63.1,58.2,29.87,SSE,150,1.0,3.5,84,0.00,SCT,BKN,0.00,0.0,WeatherDisplay:10.37,2013-07-27 06:52:00,
2013-07-27 02:57:00,63.1,58.2,29.86,SSE,152,1.6,3.5,84,0.00,SCT,BKN,0.00,0.0,WeatherDisplay:10.37,2013-07-27 06:57:00,
2013-07-27 03:02:00,63.1,58.2,29.86,ESE,122,2.2,4.6,84,0.00,SCT,BKN,0.00,0.0,WeatherDisplay:10.37,2013-07-27 07:02:00,
2013-07-27 03:07:00,63.1,58.2,29.86,ESE,119,2.2,4.6,84,0.00,SCT,BKN,0.00,0.0,WeatherDisplay:10.37,2013-07-27 07:07:00,
2013-07-27 03:12:00,63.3,58.4,29.86,SE,145,2.8,4.6,84,0.00,SCT,BKN,0.00,0.0,WeatherDisplay:10.37,2013-07-27 07:12:00,
2013-07-27 03:17:00,63.3,58.1,29.85,SE,130,1.5,2.4,83,0.00,SCT,BKN,0.00,0.0,WeatherDisplay:10.37,2013-07-27 07:17:00,
2013-07-27 03:22:00,63.1,57.9,29.85,SSE,147,1.0,3.5,83,0.00,SCT,BKN,0.00,0.0,WeatherDisplay:10.37,2013-07-27 07:22:00,
2013-07-27 03:27:00,63.1,57.9,29.85,SE,131,0.0,0.0,83,0.00,SCT,BKN,0.00,0.0,WeatherDisplay:10.37,2013-07-27 07:27:00,
2013-07-27 03:32:00,63.1,57.9,29.85,SE,126,0.1,1.1,83,0.00,SCT,BKN,0.00,0.0,WeatherDisplay:10.37,2013-07-27 07:32:00,
2013-07-27 03:37:00,62.8,57.5,29.85,SE,128,0.5,1.1,83,0.00,SCT,BKN,0.00,0.0,WeatherDisplay:10.37,2013-07-27 07:37:00,
2013-07-27 03:42:00,62.8,57.9,29.85,SE,141,0.3,1.3,84,0.00,SCT,BKN,0.00,0.0,WeatherDisplay:10.37,2013-07-27 07:42:00,
2013-07-27 03:47:00,62.4,57.8,29.85,ESE,123,0.0,1.1,85,0.00,SCT,BKN,0.00,0.0,WeatherDisplay:10.37,2013-07-27 07:47:00,
2013-07-27 03:52:00,62.2,57.3,29.85,SE,143,0.0,0.0,84,0.00,SCT,BKN,0.00,0.0,WeatherDisplay:10.37,2013-07-27 07:52:00,
2013-07-27 03:57:00,61.9,57.0,29.85,ESE,115,0.0,1.1,84,0.00,SCT,BKN,0.00,0.0,WeatherDisplay:10.37,2013-07-27 07:57:00,
2013-07-27 04:02:00,61.9,57.3,29.85,SE,135,0.3,1.1,85,0.00,SCT,BKN,0.00,0.0,WeatherDisplay:10.37,2013-07-27 08:02:00,
2013-07-27 04:07:00,61.9,57.6,29.85,SE,140,0.5,2.3,86,0.00,SCT,BKN,0.00,0.0,WeatherDisplay:10.37,2013-07-27 08:07:00,
2013-07-27 04:12:00,62.1,57.8,29.85,SE,130,0.3,1.3,86,0.00,SCT,BKN,0.00,0.0,WeatherDisplay:10.37,2013-07-27 08:12:00,
2013-07-27 04:17:00,62.2,57.7,29.85,ESE,114,0.2,2.3,85,0.00,SCT,BKN,0.00,0.0,WeatherDisplay:10.37,2013-07-27 08:17:00,
2013-07-27 04:22:00,62.4,57.8,29.85,SE,135,0.0,0.0,85,0.00,SCT,BKN,0.00,0.0,WeatherDisplay:10.37,2013-07-27 08:22:00,
2013-07-27 04:27:00,62.4,57.8,29.85,SSE,148,0.0,0.0,85,0.00,SCT,BKN,0.00,0.0,WeatherDisplay:10.37,2013-07-27 08:27:00,
2013-07-27 04:32:00,62.6,58.0,29.85,South,180,0.0,1.1,85,0.00,SCT,BKN,0.00,0.0,WeatherDisplay:10.37,2013-07-27 08:32:00,
2013-07-27 04:37:00,62.8,57.9,29.85,SE,128,0.0,0.0,84,0.00,SCT,BKN,0.00,0.0,WeatherDisplay:10.37,2013-07-27 08:37:00,
2013-07-27 04:42:00,62.8,57.9,29.85,SE,129,0.0,0.0,84,0.00,SCT,BKN,0.00,0.0,WeatherDisplay:10.37,2013-07-27 08:42:00,
2013-07-27 04:47:00,63.0,57.7,29.85,SSE,163,0.0,0.0,83,0.00,SCT,BKN,0.00,0.0,WeatherDisplay:10.37,2013-07-27 08:47:00,
2013-07-27 04:52:00,63.0,57.7,29.85,SSE,152,0.0,0.0,83,0.00,SCT,BKN,0.00,0.0,WeatherDisplay:10.37,2013-07-27 08:52:00,
2013-07-27 04:57:00,63.0,57.7,29.85,SSE,151,0.0,0.0,83,0.00,SCT,BKN,0.00,0.0,WeatherDisplay:10.37,2013-07-27 08:57:00,
2013-07-27 05:03:00,62.8,57.2,29.85,SE,124,0.0,0.0,82,0.00,BKN,,0.00,0.0,WeatherDisplay:10.37,2013-07-27 09:03:00,
2013-07-27 05:08:00,62.8,57.2,29.85,SE,134,0.4,1.1,82,0.00,BKN,,0.00,0.0,WeatherDisplay:10.37,2013-07-27 09:08:00,
2013-07-27 05:13:00,62.6,57.0,29.85,SE,136,0.3,2.3,82,0.00,BKN,,0.00,0.0,WeatherDisplay:10.37,2013-07-27 09:13:00,
2013-07-27 05:18:00,62.8,57.2,29.85,SSE,159,0.1,1.1,82,0.00,BKN,,0.00,0.0,WeatherDisplay:10.37,2013-07-27 09:18:00,
2013-07-27 05:23:00,63.1,57.2,29.85,SE,138,0.0,1.1,81,0.00,BKN,,0.00,0.0,WeatherDisplay:10.37,2013-07-27 09:23:00,
2013-07-27 05:28:00,63.3,57.4,29.85,SE,140,0.0,1.1,81,0.00,BKN,,0.00,0.0,WeatherDisplay:10.37,2013-07-27 09:28:00,
2013-07-27 05:33:00,63.3,57.4,29.85,SE,140,0.0,0.0,81,0.00,BKN,,0.00,0.0,WeatherDisplay:10.37,2013-07-27 09:33:00,
2013-07-27 05:38:00,63.3,57.0,29.85,SE,140,0.1,1.1,80,0.00,BKN,,0.00,0.0,WeatherDisplay:10.37,2013-07-27 09:38:00,
2013-07-27 05:43:00,63.1,57.2,29.85,ESE,115,0.3,1.1,81,0.00,BKN,,0.00,0.0,WeatherDisplay:10.37,2013-07-27 09:43:00,
2013-07-27 05:48:00,63.1,57.2,29.85,SE,141,0.1,1.1,81,0.00,BKN,,0.00,0.0,WeatherDisplay:10.37,2013-07-27 09:48:00,
2013-07-27 05:53:00,62.8,56.9,29.85,SE,142,0.0,1.1,81,0.00,BKN,,0.00,0.0,WeatherDisplay:10.37,2013-07-27 09:53:00,
2013-07-27 05:58:00,62.8,57.2,29.85,SE,141,0.0,0.0,82,0.00,BKN,,0.00,0.0,WeatherDisplay:10.37,2013-07-27 09:58:00,
2013-07-27 06:03:00,62.6,57.0,29.85,SE,142,0.0,1.1,82,0.00,BKN,,0.00,0.0,WeatherDisplay:10.37,2013-07-27 10:03:00,
2013-07-27 06:08:00,62.4,56.9,29.85,SE,144,0.1,1.1,82,0.00,BKN,,0.00,0.0,WeatherDisplay:10.37,2013-07-27 10:08:00,
2013-07-27 06:13:00,62.4,56.9,29.85,SE,144,0.1,1.1,82,0.00,BKN,,0.00,0.0,WeatherDisplay:10.37,2013-07-27 10:13:00,
2013-07-27 06:18:00,62.4,57.2,29.85,SE,133,0.1,0.0,83,0.00,BKN,,0.00,0.0,WeatherDisplay:10.37,2013-07-27 10:18:00,
2013-07-27 06:23:00,62.4,57.2,29.85,SE,141,0.0,1.1,83,0.00,BKN,,0.00,0.0,WeatherDisplay:10.37,2013-07-27 10:23:00,
2013-07-27 06:28:00,62.8,57.2,29.85,SE,142,0.0,0.0,82,0.00,BKN,,0.00,0.0,WeatherDisplay:10.37,2013-07-27 10:28:00,
2013-07-27 06:33:00,62.8,57.2,29.85,SE,142,0.0,0.0,82,0.00,BKN,,0.00,0.0,WeatherDisplay:10.37,2013-07-27 10:33:00,
2013-07-27 06:38:00,62.8,57.2,29.85,SE,141,0.0,1.1,82,0.00,BKN,,0.00,0.0,WeatherDisplay:10.37,2013-07-27 10:38:00,
2013-07-27 06:43:00,62.4,56.9,29.85,SE,133,0.1,1.1,82,0.00,BKN,,0.00,0.0,WeatherDisplay:10.37,2013-07-27 10:43:00,
2013-07-27 06:48:00,62.4,57.2,29.85,SE,135,0.0,0.0,83,0.00,BKN,,0.00,0.0,WeatherDisplay:10.37,2013-07-27 10:48:00,
2013-07-27 06:53:00,62.8,57.5,29.85,SE,134,0.0,0.0,83,0.00,BKN,,0.00,0.0,WeatherDisplay:10.37,2013-07-27 10:53:00,
2013-07-27 06:58:00,63.0,57.7,29.85,SE,140,0.0,1.1,83,0.00,BKN,,0.00,0.8,WeatherDisplay:10.37,2013-07-27 10:58:00,
2013-07-27 07:03:00,63.3,57.7,29.85,SE,141,0.1,1.1,82,0.00,BKN,,0.00,2.6,WeatherDisplay:10.37,2013-07-27 11:03:00,
2013-07-27 07:08:00,63.7,58.1,29.85,SSE,150,0.0,0.0,82,0.00,BKN,,0.00,5.4,WeatherDisplay:10.37,2013-07-27 11:08:00,
2013-07-27 07:13:00,64.2,58.6,29.85,SE,140,0.0,0.0,82,0.00,BKN,,0.00,5.8,WeatherDisplay:10.37,2013-07-27 11:13:00,
2013-07-27 07:18:00,64.6,59.0,29.85,SE,138,0.0,0.0,82,0.00,BKN,,0.00,9.6,WeatherDisplay:10.37,2013-07-27 11:18:00,
2013-07-27 07:23:00,64.6,58.6,29.85,SE,138,0.0,1.1,81,0.00,BKN,,0.00,11.6,WeatherDisplay:10.37,2013-07-27 11:23:00,
2013-07-27 07:28:00,64.9,58.6,29.85,SE,130,0.2,1.1,80,0.00,BKN,,0.00,14.1,WeatherDisplay:10.37,2013-07-27 11:28:00,
2013-07-27 07:33:00,64.9,58.6,29.85,SE,141,0.6,1.5,80,0.00,BKN,,0.00,15.6,WeatherDisplay:10.37,2013-07-27 11:33:00,
2013-07-27 07:38:00,65.1,58.8,29.85,SE,140,1.8,3.5,80,0.00,BKN,,0.00,18.1,WeatherDisplay:10.37,2013-07-27 11:38:00,
2013-07-27 07:43:00,65.3,58.6,29.85,SE,138,2.5,4.6,79,0.00,BKN,,0.00,23.1,WeatherDisplay:10.37,2013-07-27 11:43:00,
2013-07-27 07:48:00,65.8,58.4,29.85,ESE,112,2.3,3.5,77,0.00,BKN,,0.00,27.1,WeatherDisplay:10.37,2013-07-27 11:48:00,
2013-07-27 07:53:00,66.0,59.0,29.85,SE,126,2.0,3.5,78,0.00,BKN,,0.00,28.1,WeatherDisplay:10.37,2013-07-27 11:53:00,
2013-07-27 07:58:00,66.4,59.3,29.85,SSE,156,1.8,3.5,78,0.00,BKN,,0.00,32.4,WeatherDisplay:10.37,2013-07-27 11:58:00,
2013-07-27 08:03:00,66.7,60.0,29.85,SE,124,1.2,2.3,79,0.00,BKN,,0.00,51.8,WeatherDisplay:10.37,2013-07-27 12:03:00,
2013-07-27 08:08:00,67.3,60.2,29.85,SE,136,0.5,3.5,78,0.00,BKN,,0.00,40.6,WeatherDisplay:10.37,2013-07-27 12:08:00,
2013-07-27 08:13:00,67.6,60.5,29.85,SE,132,1.9,4.0,78,0.00,BKN,,0.00,45.0,WeatherDisplay:10.37,2013-07-27 12:13:00,
2013-07-27 08:18:00,68.2,60.7,29.85,SE,139,2.3,4.6,77,0.00,BKN,,0.00,52.8,WeatherDisplay:10.37,2013-07-27 12:18:00,
2013-07-27 08:23:00,68.5,60.7,29.85,SE,128,2.0,3.7,76,0.00,BKN,,0.00,54.3,WeatherDisplay:10.37,2013-07-27 12:23:00,
2013-07-27 08:28:00,68.7,60.8,29.85,SSE,152,3.1,4.6,76,0.00,BKN,,0.00,59.3,WeatherDisplay:10.37,2013-07-27 12:28:00,
2013-07-27 08:33:00,69.3,61.4,29.85,SE,130,1.6,3.8,76,0.00,BKN,,0.00,84.2,WeatherDisplay:10.37,2013-07-27 12:33:00,
2013-07-27 08:38:00,69.8,61.5,29.85,ESE,109,1.4,4.6,75,0.00,BKN,,0.00,169.9,WeatherDisplay:10.37,2013-07-27 12:38:00,
2013-07-27 08:43:00,70.5,61.8,29.85,SE,140,1.7,2.6,74,0.00,BKN,,0.00,195.5,WeatherDisplay:10.37,2013-07-27 12:43:00,
2013-07-27 08:48:00,71.1,61.6,29.85,SE,137,2.1,3.7,72,0.00,BKN,,0.00,108.4,WeatherDisplay:10.37,2013-07-27 12:48:00,
2013-07-27 08:53:00,71.2,61.7,29.85,SE,132,0.5,4.6,72,0.00,BKN,,0.00,102.6,WeatherDisplay:10.37,2013-07-27 12:53:00,
2013-07-27 08:58:00,71.4,61.9,29.85,SE,127,2.1,3.2,72,0.00,BKN,,0.00,150.3,WeatherDisplay:10.37,2013-07-27 12:58:00,
2013-07-27 09:03:00,72.0,62.4,29.85,SE,126,1.6,3.5,72,0.00,BKN,,0.00,384.4,WeatherDisplay:10.37,2013-07-27 13:03:00,
2013-07-27 09:08:00,73.0,63.1,29.85,ESE,121,1.6,3.7,71,0.00,BKN,,0.00,293.2,WeatherDisplay:10.37,2013-07-27 13:08:00,
2013-07-27 09:13:00,73.6,62.8,29.85,SE,142,1.3,2.3,69,0.00,BKN,,0.00,199.1,WeatherDisplay:10.37,2013-07-27 13:13:00,
2013-07-27 09:18:00,74.1,62.9,29.85,SE,133,1.0,3.2,68,0.00,BKN,,0.00,187.6,WeatherDisplay:10.37,2013-07-27 13:18:00,
2013-07-27 09:23:00,74.3,62.6,29.85,SE,124,1.5,3.5,67,0.00,BKN,,0.00,258.8,WeatherDisplay:10.37,2013-07-27 13:23:00,
2013-07-27 09:28:00,74.5,63.2,29.85,East,95,1.4,4.6,68,0.00,BKN,,0.00,416.7,WeatherDisplay:10.37,2013-07-27 13:28:00,
2013-07-27 09:33:00,75.4,63.2,29.84,SSE,160,2.7,5.8,66,0.00,BKN,,0.00,508.1,WeatherDisplay:10.37,2013-07-27 13:33:00,
2013-07-27 09:38:00,75.9,63.3,29.84,SE,134,0.4,4.0,65,0.00,BKN,,0.00,273.1,WeatherDisplay:10.37,2013-07-27 13:38:00,
2013-07-27 09:43:00,75.9,63.3,29.84,SSE,156,2.2,4.6,65,0.00,BKN,,0.00,264.3,WeatherDisplay:10.37,2013-07-27 13:43:00,
2013-07-27 09:48:00,76.3,64.1,29.84,SE,137,2.3,3.0,66,0.00,BKN,,0.00,476.2,WeatherDisplay:10.37,2013-07-27 13:48:00,
2013-07-27 09:53:00,76.5,63.4,29.84,ESE,112,1.3,4.6,64,0.00,BKN,,0.00,312.8,WeatherDisplay:10.37,2013-07-27 13:53:00,
2013-07-27 09:58:00,76.6,63.5,29.84,ESE,121,1.2,1.6,64,0.00,BKN,,0.00,395.1,WeatherDisplay:10.37,2013-07-27 13:58:00,
2013-07-27 10:03:00,77.5,64.4,29.84,SSE,164,0.1,2.3,64,0.00,BKN,,0.00,332.7,WeatherDisplay:10.37,2013-07-27 14:03:00,
2013-07-27 10:08:00,77.2,63.6,29.84,SE,139,0.4,2.3,63,0.00,BKN,,0.00,308.1,WeatherDisplay:10.37,2013-07-27 14:08:00,
2013-07-27 10:13:00,77.2,64.5,29.84,ESE,117,0.0,2.3,65,0.00,BKN,,0.00,323.5,WeatherDisplay:10.37,2013-07-27 14:13:00,
2013-07-27 10:18:00,77.2,64.1,29.84,SSE,149,0.8,4.6,64,0.00,BKN,,0.00,372.2,WeatherDisplay:10.37,2013-07-27 14:18:00,
2013-07-27 10:23:00,77.7,65.5,29.84,SE,133,0.2,2.3,66,0.00,BKN,,0.00,546.0,WeatherDisplay:10.37,2013-07-27 14:23:00,
2013-07-27 10:28:00,78.6,65.4,29.83,SE,129,0.1,1.1,64,0.00,BKN,,0.00,491.1,WeatherDisplay:10.37,2013-07-27 14:28:00,
2013-07-27 10:33:00,78.8,64.7,29.84,ESE,110,1.4,3.5,62,0.00,BKN,,0.00,452.5,WeatherDisplay:10.37,2013-07-27 14:33:00,
2013-07-27 10:38:00,79.3,65.6,29.83,SE,126,0.6,1.1,63,0.00,BKN,,0.00,456.7,WeatherDisplay:10.37,2013-07-27 14:38:00,
2013-07-27 10:43:00,79.9,65.7,29.84,ENE,75,0.3,2.3,62,0.00,BKN,,0.00,479.3,WeatherDisplay:10.37,2013-07-27 14:43:00,
2013-07-27 10:48:00,79.9,65.2,29.83,East,93,0.6,3.5,61,0.00,BKN,,0.00,577.4,WeatherDisplay:10.37,2013-07-27 14:48:00,
2013-07-27 10:53:00,80.2,65.1,29.84,South,187,1.0,4.6,60,0.00,BKN,,0.00,612.4,WeatherDisplay:10.37,2013-07-27 14:53:00,
2013-07-27 10:58:00,80.4,65.3,29.83,ESE,121,0.6,1.1,60,0.00,BKN,,0.00,711.9,WeatherDisplay:10.37,2013-07-27 14:58:00,
2013-07-27 11:03:00,81.5,65.8,29.84,NE,51,1.6,1.6,59,0.00,OVC,BKN,0.00,685.7,WeatherDisplay:10.37,2013-07-27 15:03:00,
2013-07-27 11:08:00,81.7,65.0,29.83,SE,130,1.9,5.8,57,0.00,OVC,BKN,0.00,668.2,WeatherDisplay:10.37,2013-07-27 15:08:00,
2013-07-27 11:13:00,81.5,65.3,29.83,NE,49,0.3,2.3,58,0.00,OVC,BKN,0.00,656.8,WeatherDisplay:10.37,2013-07-27 15:13:00,
2013-07-27 11:18:00,81.3,65.1,29.83,South,184,0.1,4.6,58,0.00,OVC,BKN,0.00,400.6,WeatherDisplay:10.37,2013-07-27 15:18:00,
2013-07-27 11:23:00,80.8,64.6,29.83,SE,139,0.5,2.3,58,0.00,OVC,BKN,0.00,449.5,WeatherDisplay:10.37,2013-07-27 15:23:00,
2013-07-27 11:28:00,79.9,63.8,29.83,South,174,2.3,5.8,58,0.00,OVC,BKN,0.00,593.5,WeatherDisplay:10.37,2013-07-27 15:28:00,
2013-07-27 11:33:00,80.1,64.9,29.83,ESE,116,1.5,5.8,60,0.00,OVC,BKN,0.00,709.0,WeatherDisplay:10.37,2013-07-27 15:33:00,
2013-07-27 11:38:00,79.9,63.8,29.83,SE,135,2.9,3.8,58,0.00,OVC,BKN,0.00,415.6,WeatherDisplay:10.37,2013-07-27 15:38:00,
2013-07-27 11:43:00,80.1,64.4,29.84,SE,141,1.4,4.0,59,0.00,OVC,BKN,0.00,431.3,WeatherDisplay:10.37,2013-07-27 15:43:00,
2013-07-27 11:48:00,79.5,63.9,29.83,SSE,158,1.6,4.6,59,0.00,OVC,BKN,0.00,484.9,WeatherDisplay:10.37,2013-07-27 15:48:00,
2013-07-27 11:53:00,79.5,63.4,29.83,ESE,121,2.1,4.6,58,0.00,OVC,BKN,0.00,498.1,WeatherDisplay:10.37,2013-07-27 15:53:00,
2013-07-27 11:58:00,79.3,63.8,29.84,South,178,2.2,5.9,59,0.00,OVC,BKN,0.00,536.3,WeatherDisplay:10.37,2013-07-27 15:58:00,
2013-07-27 12:03:00,79.3,64.2,29.84,SE,144,0.6,4.6,60,0.00,OVC,BKN,0.00,714.0,WeatherDisplay:10.37,2013-07-27 16:03:00,
2013-07-27 12:08:00,79.9,64.8,29.83,SSE,155,1.6,5.8,60,0.00,OVC,BKN,0.00,707.4,WeatherDisplay:10.37,2013-07-27 16:08:00,
2013-07-27 12:13:00,80.2,65.1,29.83,SE,137,1.8,4.6,60,0.00,OVC,BKN,0.00,651.4,WeatherDisplay:10.37,2013-07-27 16:13:00,
2013-07-27 12:18:00,80.2,64.6,29.83,East,91,2.8,6.9,59,0.00,BKN,,0.00,760.5,WeatherDisplay:10.37,2013-07-27 16:18:00,
2013-07-27 12:23:00,80.1,63.5,29.83,ESE,122,2.1,6.9,57,0.00,BKN,,0.00,735.5,WeatherDisplay:10.37,2013-07-27 16:23:00,
2013-07-27 12:28:00,80.4,64.3,29.83,SSE,147,1.4,4.6,58,0.00,BKN,,0.00,761.5,WeatherDisplay:10.37,2013-07-27 16:28:00,
2013-07-27 12:33:00,80.8,65.1,29.82,SSE,153,0.8,4.6,59,0.00,BKN,,0.00,765.1,WeatherDisplay:10.37,2013-07-27 16:33:00,
2013-07-27 12:38:00,81.1,65.0,29.83,ESE,119,1.3,3.5,58,0.00,BKN,,0.00,661.4,WeatherDisplay:10.37,2013-07-27 16:38:00,
2013-07-27 12:43:00,80.4,62.2,29.83,SSE,156,3.0,6.9,54,0.00,BKN,,0.00,550.7,WeatherDisplay:10.37,2013-07-27 16:43:00,
2013-07-27 12:48:00,80.4,63.3,29.82,SE,134,0.3,3.5,56,0.00,BKN,,0.00,525.2,WeatherDisplay:10.37,2013-07-27 16:48:00,
2013-07-27 12:53:00,80.4,63.8,29.82,South,174,0.4,3.5,57,0.00,BKN,,0.00,525.0,WeatherDisplay:10.37,2013-07-27 16:53:00,
2013-07-27 12:58:00,79.9,63.8,29.81,SSE,153,2.3,4.6,58,0.00,BKN,,0.00,483.6,WeatherDisplay:10.37,2013-07-27 16:58:00,
2013-07-27 13:03:00,79.9,65.2,29.82,SSE,165,0.0,4.6,61,0.00,BKN,,0.00,437.6,WeatherDisplay:10.37,2013-07-27 17:03:00,
2013-07-27 13:08:00,79.5,64.9,29.82,SE,134,0.9,1.4,61,0.00,BKN,,0.00,381.3,WeatherDisplay:10.37,2013-07-27 17:08:00,
2013-07-27 13:13:00,79.2,64.1,29.83,SSE,155,1.9,6.9,60,0.00,BKN,,0.00,382.9,WeatherDisplay:10.37,2013-07-27 17:13:00,
2013-07-27 13:18:00,78.8,64.2,29.81,SE,142,0.0,0.0,61,0.00,OVC,BKN,0.00,444.1,WeatherDisplay:10.37,2013-07-27 17:18:00,
2013-07-27 13:23:00,79.0,65.3,29.83,SSE,160,0.3,3.5,63,0.00,OVC,BKN,0.00,454.8,WeatherDisplay:10.37,2013-07-27 17:23:00,
2013-07-27 13:28:00,78.6,64.0,29.82,SE,140,0.9,6.9,61,0.00,OVC,BKN,0.00,631.0,WeatherDisplay:10.37,2013-07-27 17:28:00,
2013-07-27 13:33:00,78.8,64.2,29.81,ESE,110,1.3,5.8,61,0.00,OVC,BKN,0.00,666.2,WeatherDisplay:10.37,2013-07-27 17:33:00,
2013-07-27 13:38:00,79.0,64.4,29.81,ESE,105,0.9,4.6,61,0.00,OVC,BKN,0.00,709.3,WeatherDisplay:10.37,2013-07-27 17:38:00,
2013-07-27 13:43:00,79.0,63.9,29.81,SSW,200,1.6,5.8,60,0.00,OVC,BKN,0.00,548.5,WeatherDisplay:10.37,2013-07-27 17:43:00,
2013-07-27 13:48:00,79.0,64.8,29.82,SSE,165,0.2,2.3,62,0.00,OVC,BKN,0.00,638.7,WeatherDisplay:10.37,2013-07-27 17:48:00,
2013-07-27 13:53:00,78.6,63.1,29.81,SSW,202,2.7,4.6,59,0.00,OVC,BKN,0.00,718.4,WeatherDisplay:10.37,2013-07-27 17:53:00,
2013-07-27 13:58:00,78.8,62.8,29.81,South,186,2.1,4.6,58,0.00,OVC,BKN,0.00,542.5,WeatherDisplay:10.37,2013-07-27 17:58:00,
2013-07-27 14:03:00,79.0,63.9,29.81,South,178,0.4,1.5,60,0.00,OVC,BKN,0.00,448.6,WeatherDisplay:10.37,2013-07-27 18:03:00,
2013-07-27 14:08:00,78.6,63.1,29.81,SSE,155,1.3,2.3,59,0.00,OVC,BKN,0.00,451.9,WeatherDisplay:10.37,2013-07-27 18:08:00,
2013-07-27 14:13:00,78.6,63.1,29.81,ESE,106,2.6,6.9,59,0.00,OVC,BKN,0.00,442.8,WeatherDisplay:10.37,2013-07-27 18:13:00,
2013-07-27 14:18:00,78.4,62.9,29.81,SSE,166,1.9,4.6,59,0.00,-RA,BKN,0.00,445.8,WeatherDisplay:10.37,2013-07-27 18:18:00,
2013-07-27 14:23:00,78.6,63.6,29.81,SSW,206,0.3,2.3,60,0.00,-RA,BKN,0.00,344.4,WeatherDisplay:10.37,2013-07-27 18:23:00,
2013-07-27 14:28:00,78.6,63.6,29.81,SE,143,0.1,1.1,60,0.00,-RA,BKN,0.00,268.0,WeatherDisplay:10.37,2013-07-27 18:28:00,
2013-07-27 14:33:00,78.6,64.5,29.81,SE,142,0.2,1.1,62,0.00,-RA,BKN,0.00,265.2,WeatherDisplay:10.37,2013-07-27 18:33:00,
2013-07-27 14:38:00,78.4,64.8,29.81,SE,134,0.0,0.0,63,0.00,-RA,BKN,0.00,306.4,WeatherDisplay:10.37,2013-07-27 18:38:00,
2013-07-27 14:43:00,78.1,64.5,29.80,SE,142,2.8,5.8,63,0.00,-RA,BKN,0.00,242.7,WeatherDisplay:10.37,2013-07-27 18:43:00,
2013-07-27 14:48:00,77.5,64.4,29.81,SE,143,0.7,2.3,64,0.00,-RA,BKN,0.00,261.4,WeatherDisplay:10.37,2013-07-27 18:48:00,
2013-07-27 14:53:00,77.5,65.3,29.81,SSE,157,0.9,3.5,66,0.00,-RA,BKN,0.00,345.8,WeatherDisplay:10.37,2013-07-27 18:53:00,
2013-07-27 14:58:00,77.4,65.1,29.80,SE,142,1.9,3.7,66,0.00,-RA,BKN,0.00,532.2,WeatherDisplay:10.37,2013-07-27 18:58:00,
2013-07-27 15:03:00,77.5,65.3,29.80,SSE,150,1.5,3.5,66,0.00,-RA,BKN,0.00,608.5,WeatherDisplay:10.37,2013-07-27 19:03:00,
2013-07-27 15:08:00,78.1,65.4,29.80,SSE,159,0.6,2.4,65,0.00,-RA,BKN,0.00,369.5,WeatherDisplay:10.37,2013-07-27 19:08:00,
2013-07-27 15:13:00,78.1,64.9,29.80,SSE,165,0.7,3.5,64,0.00,-RA,BKN,0.00,372.1,WeatherDisplay:10.37,2013-07-27 19:13:00,
2013-07-27 15:18:00,78.3,65.1,29.80,SSE,162,0.2,2.3,64,0.00,-RA,BKN,0.00,394.6,WeatherDisplay:10.37,2013-07-27 19:18:00,
2013-07-27 15:23:00,78.1,64.0,29.80,SE,134,1.0,5.8,62,0.00,-RA,BKN,0.00,377.9,WeatherDisplay:10.37,2013-07-27 19:23:00,
2013-07-27 15:28:00,78.1,64.5,29.78,SE,135,0.6,5.8,63,0.00,-RA,BKN,0.00,382.3,WeatherDisplay:10.37,2013-07-27 19:28:00,
2013-07-27 15:33:00,77.9,63.8,29.78,SSE,156,2.5,4.6,62,0.00,-RA,BKN,0.00,422.8,WeatherDisplay:10.37,2013-07-27 19:33:00,
2013-07-27 15:38:00,77.9,63.4,29.78,SSW,201,0.6,2.3,61,0.00,-RA,BKN,0.00,436.8,WeatherDisplay:10.37,2013-07-27 19:38:00,
2013-07-27 15:43:00,78.1,64.0,29.78,South,171,0.2,1.1,62,0.00,-RA,BKN,0.00,509.5,WeatherDisplay:10.37,2013-07-27 19:43:00,
2013-07-27 15:48:00,78.4,64.3,29.78,SE,146,0.0,1.1,62,0.00,-RA,BKN,0.00,446.1,WeatherDisplay:10.37,2013-07-27 19:48:00,
2013-07-27 15:53:00,78.6,64.5,29.78,SE,135,1.1,3.5,62,0.00,-RA,BKN,0.00,315.5,WeatherDisplay:10.37,2013-07-27 19:53:00,
2013-07-27 15:58:00,78.1,63.1,29.78,ESE,104,3.7,6.9,60,0.00,-RA,BKN,0.00,319.4,WeatherDisplay:10.37,2013-07-27 19:58:00,
2013-07-27 16:03:00,78.1,64.0,29.77,ESE,117,2.2,3.5,62,0.00,-RA,BKN,0.00,372.2,WeatherDisplay:10.37,2013-07-27 20:03:00,
2013-07-27 16:08:00,77.9,63.4,29.77,SE,133,6.1,9.2,61,0.00,-RA,BKN,0.00,377.6,WeatherDisplay:10.37,2013-07-27 20:08:00,
2013-07-27 16:13:00,77.9,63.8,29.78,SE,143,1.3,3.5,62,0.00,-RA,BKN,0.00,340.4,WeatherDisplay:10.37,2013-07-27 20:13:00,
2013-07-27 16:18:00,77.5,63.9,29.78,SE,127,0.5,2.3,63,0.00,-RA,BKN,0.00,363.2,WeatherDisplay:10.37,2013-07-27 20:18:00,
2013-07-27 16:23:00,77.4,64.2,29.77,SE,134,3.2,5.8,64,0.00,-RA,BKN,0.00,365.8,WeatherDisplay:10.37,2013-07-27 20:23:00,
2013-07-27 16:28:00,77.4,65.1,29.78,South,185,1.1,2.4,66,0.00,-RA,BKN,0.00,359.1,WeatherDisplay:10.37,2013-07-27 20:28:00,
2013-07-27 16:33:00,77.2,64.5,29.77,SE,129,1.0,6.0,65,0.00,-RA,BKN,0.00,370.3,WeatherDisplay:10.37,2013-07-27 20:33:00,
2013-07-27 16:38:00,76.6,64.4,29.78,SSE,147,4.8,9.2,66,0.00,-RA,BKN,0.00,372.3,WeatherDisplay:10.37,2013-07-27 20:38:00,
2013-07-27 16:43:00,76.6,64.9,29.77,South,180,1.6,4.6,67,0.00,-RA,BKN,0.00,329.1,WeatherDisplay:10.37,2013-07-27 20:43:00,
2013-07-27 16:48:00,76.6,64.4,29.77,SSE,149,1.7,5.8,66,0.00,-RA,BKN,0.00,331.3,WeatherDisplay:10.37,2013-07-27 20:48:00,
2013-07-27 16:53:00,76.5,63.8,29.77,SE,139,0.6,4.6,65,0.00,-RA,BKN,0.00,340.3,WeatherDisplay:10.37,2013-07-27 20:53:00,
2013-07-27 16:58:00,76.1,63.0,29.77,SSE,161,3.2,6.9,64,0.00,-RA,BKN,0.00,392.5,WeatherDisplay:10.37,2013-07-27 20:58:00,
2013-07-27 17:03:00,76.6,64.4,29.76,SSE,149,0.3,4.6,66,0.00,-RA,BKN,0.00,375.6,WeatherDisplay:10.37,2013-07-27 21:03:00,
2013-07-27 17:08:00,76.3,63.2,29.77,South,186,1.4,3.5,64,0.00,-RA,BKN,0.00,272.3,WeatherDisplay:10.37,2013-07-27 21:08:00,
2013-07-27 17:13:00,76.5,64.3,29.76,SSE,152,0.2,3.5,66,0.00,-RA,BKN,0.00,260.3,WeatherDisplay:10.37,2013-07-27 21:13:00,
2013-07-27 17:18:00,76.3,64.1,29.76,South,171,0.5,4.6,66,0.00,-RA,BKN,0.00,244.4,WeatherDisplay:10.37,2013-07-27 21:18:00,
2013-07-27 17:23:00,76.3,64.1,29.76,ESE,113,0.7,3.5,66,0.00,-RA,BKN,0.00,165.3,WeatherDisplay:10.37,2013-07-27 21:23:00,
2013-07-27 17:28:00,75.9,63.3,29.76,SE,138,0.7,3.5,65,0.00,-RA,BKN,0.00,157.8,WeatherDisplay:10.37,2013-07-27 21:28:00,
2013-07-27 17:33:00,75.7,63.1,29.76,SSE,155,0.8,2.3,65,0.00,-RA,BKN,0.00,150.6,WeatherDisplay:10.37,2013-07-27 21:33:00,
2013-07-27 17:38:00,75.4,62.8,29.76,South,173,0.2,1.1,65,0.00,-RA,BKN,0.00,119.2,WeatherDisplay:10.37,2013-07-27 21:38:00,
2013-07-27 17:43:00,75.0,62.9,29.76,SSE,157,0.5,2.3,66,0.00,-RA,BKN,0.00,104.0,WeatherDisplay:10.37,2013-07-27 21:43:00,
2013-07-27 17:48:00,75.0,62.9,29.76,SE,134,0.4,4.6,66,0.00,BKN,,0.00,145.0,WeatherDisplay:10.37,2013-07-27 21:48:00,
2013-07-27 17:53:00,75.2,63.1,29.76,SSE,147,1.3,3.5,66,0.00,BKN,,0.00,120.5,WeatherDisplay:10.37,2013-07-27 21:53:00,
2013-07-27 17:58:00,75.4,63.7,29.76,SE,132,0.2,1.1,67,0.00,BKN,,0.00,127.2,WeatherDisplay:10.37,2013-07-27 21:58:00,
2013-07-27 18:03:00,75.4,64.1,29.76,SE,132,1.8,3.5,68,0.00,BKN,,0.00,126.6,WeatherDisplay:10.37,2013-07-27 22:03:00,
2013-07-27 18:08:00,75.0,63.3,29.75,SE,143,1.4,4.6,67,0.00,BKN,,0.00,119.8,WeatherDisplay:10.37,2013-07-27 22:08:00,
2013-07-27 18:13:00,74.8,63.1,29.75,ESE,121,3.1,5.8,67,0.00,BKN,,0.00,119.9,WeatherDisplay:10.37,2013-07-27 22:13:00,
2013-07-27 18:18:00,74.8,63.6,29.75,SE,137,0.6,4.0,68,0.00,OVC,BKN,0.00,100.9,WeatherDisplay:10.37,2013-07-27 22:18:00,
2013-07-27 18:23:00,74.8,63.6,29.75,SE,142,1.7,3.5,68,0.00,OVC,BKN,0.00,100.2,WeatherDisplay:10.37,2013-07-27 22:23:00,
2013-07-27 18:28:00,74.8,63.6,29.75,SE,140,0.5,1.1,68,0.00,OVC,BKN,0.00,112.2,WeatherDisplay:10.37,2013-07-27 22:28:00,
2013-07-27 18:33:00,74.5,63.6,29.76,ESE,115,1.8,4.6,69,0.00,OVC,BKN,0.00,107.3,WeatherDisplay:10.37,2013-07-27 22:33:00,
2013-07-27 18:38:00,74.5,64.1,29.76,SE,139,0.5,4.6,70,0.00,OVC,BKN,0.00,125.0,WeatherDisplay:10.37,2013-07-27 22:38:00,
2013-07-27 18:43:00,73.9,63.5,29.75,SE,146,2.3,9.2,70,0.00,OVC,BKN,0.00,100.6,WeatherDisplay:10.37,2013-07-27 22:43:00,
2013-07-27 18:48:00,74.1,64.1,29.75,SE,146,2.1,5.8,71,0.00,OVC,BKN,0.00,82.2,WeatherDisplay:10.37,2013-07-27 22:48:00,
2013-07-27 18:53:00,73.9,63.9,29.75,SSE,147,0.6,6.9,71,0.00,OVC,BKN,0.00,77.8,WeatherDisplay:10.37,2013-07-27 22:53:00,
2013-07-27 18:58:00,73.6,64.0,29.76,SSE,155,3.3,8.1,72,0.00,OVC,BKN,0.00,83.9,WeatherDisplay:10.37,2013-07-27 22:58:00,
2013-07-27 19:03:00,73.4,63.8,29.76,ESE,104,4.4,9.2,72,0.00,OVC,BKN,0.00,67.6,WeatherDisplay:10.37,2013-07-27 23:03:00,
2013-07-27 19:08:00,73.2,63.2,29.76,SSE,166,1.0,3.5,71,0.00,OVC,BKN,0.00,56.1,WeatherDisplay:10.37,2013-07-27 23:08:00,
2013-07-27 19:13:00,73.4,63.8,29.76,ESE,107,0.3,1.4,72,0.00,OVC,BKN,0.00,48.1,WeatherDisplay:10.37,2013-07-27 23:13:00,
2013-07-27 19:18:00,73.4,63.8,29.76,South,186,0.5,1.1,72,0.00,OVC,BKN,0.00,53.7,WeatherDisplay:10.37,2013-07-27 23:18:00,
2013-07-27 19:23:00,73.2,64.0,29.76,SSE,166,0.6,5.8,73,0.00,OVC,BKN,0.00,43.9,WeatherDisplay:10.37,2013-07-27 23:23:00,
2013-07-27 19:28:00,73.2,64.0,29.76,SSE,156,1.8,5.8,73,0.00,OVC,BKN,0.00,30.0,WeatherDisplay:10.37,2013-07-27 23:28:00,
2013-07-27 19:33:00,73.2,64.4,29.76,ESE,123,0.3,1.1,74,0.00,OVC,BKN,0.00,22.0,WeatherDisplay:10.37,2013-07-27 23:33:00,
2013-07-27 19:38:00,72.7,63.9,29.76,SE,135,3.2,5.8,74,0.00,OVC,BKN,0.00,16.5,WeatherDisplay:10.37,2013-07-27 23:38:00,
2013-07-27 19:43:00,72.7,64.3,29.76,SE,132,1.0,4.6,75,0.00,OVC,BKN,0.00,13.4,WeatherDisplay:10.37,2013-07-27 23:43:00,
2013-07-27 19:48:00,72.5,64.1,29.76,SE,131,1.3,2.3,75,0.00,OVC,BKN,0.00,11.4,WeatherDisplay:10.37,2013-07-27 23:48:00,
2013-07-27 19:53:00,72.3,64.3,29.76,SSE,165,2.7,8.1,76,0.00,OVC,BKN,0.00,7.7,WeatherDisplay:10.37,2013-07-27 23:53:00,
2013-07-27 19:58:00,72.1,64.2,29.76,SE,128,2.3,6.9,76,0.00,OVC,BKN,0.00,7.4,WeatherDisplay:10.37,2013-07-27 23:58:00,
2013-07-27 20:03:00,72.1,64.2,29.76,SE,132,2.7,4.6,76,0.00,OVC,BKN,0.00,4.9,WeatherDisplay:10.37,2013-07-28 00:03:00,
2013-07-27 20:08:00,71.6,63.6,29.76,SE,132,3.6,6.9,76,0.00,OVC,BKN,0.00,4.7,WeatherDisplay:10.37,2013-07-28 00:08:00,
2013-07-27 20:13:00,71.8,63.8,29.76,SSE,147,0.8,4.6,76,0.00,OVC,BKN,0.00,4.4,WeatherDisplay:10.37,2013-07-28 00:13:00,
2013-07-27 20:18:00,71.4,63.5,29.76,SSE,152,2.4,4.6,76,0.00,OVC,BKN,0.00,4.2,WeatherDisplay:10.37,2013-07-28 00:18:00,
2013-07-27 20:23:00,71.4,63.5,29.76,SE,138,3.0,8.1,76,0.00,OVC,BKN,0.00,2.3,WeatherDisplay:10.37,2013-07-28 00:23:00,
2013-07-27 20:28:00,71.4,63.5,29.76,SE,138,1.8,3.7,76,0.00,OVC,BKN,0.00,1.5,WeatherDisplay:10.37,2013-07-28 00:28:00,
2013-07-27 20:33:00,71.4,63.5,29.75,SE,124,0.9,2.3,76,0.00,OVC,BKN,0.00,0.6,WeatherDisplay:10.37,2013-07-28 00:33:00,
2013-07-27 20:38:00,71.4,63.5,29.75,ESE,109,0.4,2.3,76,0.00,OVC,BKN,0.00,0.5,WeatherDisplay:10.37,2013-07-28 00:38:00,
2013-07-27 20:43:00,71.4,63.5,29.75,ENE,65,0.0,0.0,76,0.00,OVC,BKN,0.00,0.0,WeatherDisplay:10.37,2013-07-28 00:43:00,
2013-07-27 20:48:00,71.2,63.7,29.74,SE,130,0.8,2.3,77,0.00,OVC,BKN,0.00,0.0,WeatherDisplay:10.37,2013-07-28 00:48:00,
2013-07-27 20:53:00,71.1,63.9,29.75,SE,139,0.6,2.3,78,0.00,OVC,BKN,0.00,0.0,WeatherDisplay:10.37,2013-07-28 00:53:00,
2013-07-27 20:58:00,70.9,64.0,29.76,SE,134,0.1,1.1,79,0.00,OVC,BKN,0.00,0.0,WeatherDisplay:10.37,2013-07-28 00:58:00,
2013-07-27 21:03:00,70.5,64.0,29.76,SE,139,0.2,2.3,80,0.00,OVC,BKN,0.00,0.0,WeatherDisplay:10.37,2013-07-28 01:03:00,
2013-07-27 21:08:00,70.3,64.6,29.76,SE,139,1.3,3.5,82,0.00,OVC,BKN,0.00,0.0,WeatherDisplay:10.37,2013-07-28 01:08:00,
2013-07-27 21:13:00,70.2,64.4,29.76,SE,125,0.7,2.3,82,0.00,OVC,BKN,0.00,0.0,WeatherDisplay:10.37,2013-07-28 01:13:00,
2013-07-27 21:18:00,69.8,64.7,29.76,ESE,123,1.0,2.3,84,0.00,OVC,BKN,0.00,0.0,WeatherDisplay:10.37,2013-07-28 01:18:00,
2013-07-27 21:23:00,69.4,64.7,29.76,SSE,152,1.7,3.5,85,0.00,OVC,BKN,0.00,0.0,WeatherDisplay:10.37,2013-07-28 01:23:00,
2013-07-27 21:28:00,69.4,65.1,29.76,SE,127,2.5,4.7,86,0.00,OVC,BKN,0.00,0.0,WeatherDisplay:10.37,2013-07-28 01:28:00,
2013-07-27 21:33:00,69.4,65.1,29.76,SSE,163,0.4,2.3,86,0.00,OVC,BKN,0.00,0.0,WeatherDisplay:10.37,2013-07-28 01:33:00,
2013-07-27 21:38:00,69.4,65.1,29.76,South,174,1.2,5.8,86,0.00,OVC,BKN,0.00,0.0,WeatherDisplay:10.37,2013-07-28 01:38:00,
2013-07-27 21:43:00,69.4,65.1,29.76,SE,137,1.1,2.8,86,0.00,OVC,BKN,0.00,0.0,WeatherDisplay:10.37,2013-07-28 01:43:00,
2013-07-27 21:48:00,69.1,65.0,29.76,SE,132,4.0,5.8,87,0.00,OVC,BKN,0.00,0.0,WeatherDisplay:10.37,2013-07-28 01:48:00,
2013-07-27 21:53:00,68.7,65.0,29.76,East,90,3.6,8.1,88,0.00,OVC,BKN,0.00,0.0,WeatherDisplay:10.37,2013-07-28 01:53:00,
2013-07-27 21:58:00,68.9,65.2,29.76,SE,131,2.8,6.9,88,0.00,OVC,BKN,0.00,0.0,WeatherDisplay:10.37,2013-07-28 01:58:00,
2013-07-27 22:03:00,68.9,65.2,29.76,SSW,206,3.8,5.8,88,0.00,OVC,BKN,0.00,0.0,WeatherDisplay:10.37,2013-07-28 02:03:00,
2013-07-27 22:08:00,68.7,65.0,29.76,SSW,200,1.8,4.6,88,0.00,OVC,BKN,0.00,0.0,WeatherDisplay:10.37,2013-07-28 02:08:00,
2013-07-27 22:13:00,69.1,65.4,29.76,SE,135,0.7,2.3,88,0.00,OVC,BKN,0.00,0.0,WeatherDisplay:10.37,2013-07-28 02:13:00,
2013-07-27 22:18:00,68.9,65.2,29.75,SSE,155,1.2,2.3,88,0.00,-RA,BKN,0.00,0.0,WeatherDisplay:10.37,2013-07-28 02:18:00,
2013-07-27 22:23:00,68.7,65.0,29.75,SE,139,1.0,2.3,88,0.00,-RA,BKN,0.00,0.0,WeatherDisplay:10.37,2013-07-28 02:23:00,
2013-07-27 22:28:00,68.7,65.0,29.74,SSE,163,2.1,5.8,88,0.00,-RA,BKN,0.00,0.0,WeatherDisplay:10.37,2013-07-28 02:28:00,
2013-07-27 22:33:00,68.5,64.8,29.75,ESE,108,2.2,5.8,88,0.00,-RA,BKN,0.00,0.0,WeatherDisplay:10.37,2013-07-28 02:33:00,
2013-07-27 22:38:00,68.5,64.8,29.75,SE,141,2.6,3.5,88,0.01,-RA,BKN,0.01,0.0,WeatherDisplay:10.37,2013-07-28 02:38:00,
2013-07-27 22:43:00,68.5,64.8,29.74,SE,132,2.1,4.6,88,0.01,-RA,BKN,0.01,0.0,WeatherDisplay:10.37,2013-07-28 02:43:00,
2013-07-27 22:48:00,68.5,64.8,29.74,ESE,109,2.9,5.4,88,0.01,-RA,BKN,0.01,0.0,WeatherDisplay:10.37,2013-07-28 02:48:00,
2013-07-27 22:53:00,68.5,64.8,29.74,ESE,111,2.1,4.6,88,0.01,-RA,BKN,0.01,0.0,WeatherDisplay:10.37,2013-07-28 02:53:00,
2013-07-27 22:58:00,68.5,65.2,29.74,SE,130,2.1,2.4,89,0.01,-RA,BKN,0.01,0.0,WeatherDisplay:10.37,2013-07-28 02:58:00,
2013-07-27 23:03:00,68.5,65.2,29.73,SE,126,0.9,3.5,89,0.01,-RA,BKN,0.01,0.0,WeatherDisplay:10.37,2013-07-28 03:03:00,
2013-07-27 23:08:00,68.5,65.2,29.73,SE,129,0.9,2.3,89,0.01,-RA,BKN,0.01,0.0,WeatherDisplay:10.37,2013-07-28 03:08:00,
2013-07-27 23:13:00,68.5,65.2,29.73,SE,127,1.0,4.6,89,0.01,-RA,BKN,0.01,0.0,WeatherDisplay:10.37,2013-07-28 03:13:00,
2013-07-27 23:18:00,68.5,65.2,29.73,SE,139,1.8,3.5,89,0.01,-RA,BKN,0.01,0.0,WeatherDisplay:10.37,2013-07-28 03:18:00,
2013-07-27 23:23:00,68.5,65.2,29.72,ESE,117,1.6,5.4,89,0.01,-RA,BKN,0.01,0.0,WeatherDisplay:10.37,2013-07-28 03:23:00,
2013-07-27 23:28:00,68.7,65.3,29.73,SE,137,1.2,5.4,89,0.01,-RA,BKN,0.01,0.0,WeatherDisplay:10.37,2013-07-28 03:28:00,
2013-07-27 23:33:00,68.5,65.2,29.72,ESE,108,0.9,4.3,89,0.01,-RA,BKN,0.01,0.0,WeatherDisplay:10.37,2013-07-28 03:33:00,
2013-07-27 23:38:00,68.7,65.3,29.72,SE,125,1.2,3.5,89,0.00,-RA,BKN,0.01,0.0,WeatherDisplay:10.37,2013-07-28 03:38:00,
2013-07-27 23:43:00,68.7,65.3,29.72,ESE,114,1.7,4.6,89,0.00,-RA,BKN,0.01,0.0,WeatherDisplay:10.37,2013-07-28 03:43:00,
2013-07-27 23:48:00,68.7,65.3,29.72,SSE,158,2.6,4.8,89,0.00,-RA,BKN,0.01,0.0,WeatherDisplay:10.37,2013-07-28 03:48:00,
2013-07-27 23:53:00,68.7,65.3,29.72,SE,124,3.3,4.6,89,0.00,-RA,BKN,0.01,0.0,WeatherDisplay:10.37,2013-07-28 03:53:00,
2013-07-27 23:58:00,68.7,65.3,29.72,SE,125,2.9,7.4,89,0.00,-RA,BKN,0.01,0.0,WeatherDisplay:10.37,2013-07-28 03:58:00,